Time;durP1;ratioP1;P1;durP2;ratioP2;P2;SDS_P1;SDS_P2;PMS_P1;PMS_P2;Temp;Humidity;BMP_temperature;BMP_pressure;BME280_temperature;BME280_humidity;BME280_pressure;Samples;Min_cycle;Max_cycle;Signal;HPM_P1;HPM_P2
2022/04/28 00:01:08;;;;;;;12.23;9.37;;;10.30;69.60;;;10.70;55.20;98408.47;5042085;28;20055;-59
2022/04/28 00:03:36;;;;;;;10.17;8.83;;;10.20;69.20;;;10.69;55.15;98409.44;5041777;28;20235;-59
2022/04/28 00:06:04;;;;;;;11.60;8.17;;;10.20;69.30;;;10.66;55.41;98409.72;5041553;28;20049;-59
2022/04/28 00:08:32;;;;;;;10.80;8.50;;;10.20;69.60;;;10.63;55.64;98413.53;5042211;28;20059;-59
2022/04/28 00:11:00;;;;;;;10.07;7.73;;;10.20;69.70;;;10.62;55.43;98411.84;5041945;28;20221;-59
2022/04/28 00:13:28;;;;;;;9.47;7.87;;;10.20;69.70;;;10.59;55.89;98412.13;5041855;28;20045;-59
2022/04/28 00:15:56;;;;;;;10.27;7.67;;;10.10;69.80;;;10.55;55.70;98421.38;5040106;28;20045;-60
2022/04/28 00:18:24;;;;;;;9.73;7.23;;;10.00;70.20;;;10.52;56.00;98408.34;5041520;28;20209;-59
2022/04/28 00:20:52;;;;;;;9.37;8.13;;;10.00;70.30;;;10.48;55.84;98406.13;5041831;28;20055;-59
2022/04/28 00:23:19;;;;;;;9.17;7.20;;;10.00;70.60;;;10.48;56.17;98414.13;5041664;28;20052;-59
2022/04/28 00:25:47;;;;;;;9.87;8.33;;;10.00;70.50;;;10.46;55.89;98410.75;5041348;28;20107;-59
2022/04/28 00:28:20;;;;;;;9.20;7.50;;;9.90;70.70;;;10.42;56.18;98408.34;5041695;28;20053;-59
2022/04/28 00:30:48;;;;;;;9.10;6.97;;;9.90;70.90;;;10.38;56.09;98408.81;5041797;28;20112;-58
2022/04/28 00:33:16;;;;;;;10.00;7.43;;;9.90;71.10;;;10.35;56.25;98409.94;5042130;28;20053;-59
2022/04/28 00:35:45;;;;;;;9.80;7.83;;;9.80;71.10;;;10.33;56.01;98416.34;5056681;28;20061;-59
2022/04/28 00:38:14;;;;;;;11.03;8.53;;;9.80;71.10;;;10.31;56.13;98415.66;5042153;28;20041;-59
2022/04/28 00:40:43;;;;;;;9.70;7.73;;;9.80;72.00;;;10.29;56.26;98409.59;5045341;28;20041;-59
2022/04/28 00:43:20;;;;;;;10.93;7.70;;;9.80;71.10;;;10.27;56.26;98404.41;5043909;28;20079;-59
2022/04/28 00:45:50;;;;;;;10.00;7.43;;;9.80;71.50;;;10.23;56.22;98403.03;5043809;28;20045;-59
2022/04/28 00:51:07;;;;;;;12.13;8.83;;;9.70;71.70;;;10.16;56.34;98408.06;5044871;28;20047;-59
2022/04/28 00:53:48;;;;;;;10.43;7.77;;;9.70;71.80;;;10.14;56.78;98406.50;5045207;28;20052;-59
2022/04/28 00:56:16;;;;;;;9.57;8.17;;;9.70;72.00;;;10.08;56.39;98407.06;5043601;28;20060;-59
2022/04/28 00:58:48;;;;;;;9.87;7.93;;;9.60;72.00;;;10.04;56.64;98404.72;5045179;28;20084;-59
2022/04/28 01:01:16;;;;;;;11.67;7.73;;;9.50;72.30;;;10.02;57.14;98403.16;5044940;28;20053;-59
2022/04/28 01:03:45;;;;;;;10.77;8.47;;;9.50;72.50;;;10.00;57.02;98405.09;5044004;28;20051;-59
2022/04/28 01:06:15;;;;;;;10.67;8.43;;;9.50;72.60;;;9.95;56.83;98413.53;5043768;28;20053;-59
2022/04/28 01:08:43;;;;;;;11.13;8.80;;;9.40;72.50;;;9.94;57.13;98403.84;5045671;28;20053;-59
2022/04/28 01:11:12;;;;;;;9.80;8.80;;;9.40;72.80;;;9.96;57.14;98411.69;5044041;28;20049;-59
2022/04/28 01:13:56;;;;;;;13.47;8.13;;;9.50;72.80;;;9.98;56.86;98412.38;5029420;28;20063;-58
2022/04/28 01:16:30;;;;;;;11.23;8.80;;;9.50;72.60;;;9.97;57.38;98416.88;5043646;28;20054;-60
2022/04/28 01:18:59;;;;;;;13.30;8.73;;;9.50;72.80;;;9.95;57.21;98418.00;5043870;28;20045;-58
2022/04/28 01:21:27;;;;;;;10.80;8.20;;;9.50;72.90;;;9.94;57.49;98411.00;5043550;28;20075;-59
2022/04/28 01:24:02;;;;;;;11.77;9.03;;;9.50;73.10;;;9.95;57.67;98410.03;5043325;28;20053;-59
2022/04/28 01:26:31;;;;;;;12.17;8.50;;;9.50;73.20;;;9.94;57.75;98413.66;5043053;28;20053;-58
2022/04/28 01:28:59;;;;;;;10.63;8.33;;;9.50;73.10;;;9.91;57.57;98412.13;5042903;28;20371;-58
2022/04/28 01:31:27;;;;;;;13.60;8.93;;;9.50;73.20;;;9.88;57.17;98407.06;5026827;28;20057;-59
2022/04/28 01:33:59;;;;;;;12.23;9.07;;;9.40;73.00;;;9.86;57.53;98414.34;5043114;28;20057;-59
2022/04/28 01:36:29;;;;;;;9.93;8.33;;;9.40;73.10;;;9.81;57.68;98413.94;5043299;28;20060;-58
2022/04/28 01:38:57;;;;;;;10.57;8.67;;;9.30;73.30;;;9.80;57.67;98410.41;5059907;28;20057;-59
2022/04/28 01:41:24;;;;;;;11.60;9.10;;;9.30;73.60;;;9.79;57.32;98413.19;5045076;28;20056;-58
2022/04/28 01:43:56;;;;;;;10.17;8.77;;;9.30;74.20;;;9.75;57.40;98410.00;5043577;28;20045;-58
2022/04/28 01:46:24;;;;;;;10.87;9.13;;;9.30;73.30;;;9.72;57.60;98406.78;5042892;28;20377;-58
2022/04/28 01:49:29;;;;;;;9.35;8.38;;;9.20;73.30;;;9.65;57.60;98409.97;5042611;28;20050;-58
2022/04/28 01:55:22;;;;;;;10.77;8.57;;;9.10;73.70;;;9.55;57.78;98409.09;5049089;28;20048;-58
2022/04/28 01:57:59;;;;;;;11.50;8.83;;;9.00;73.80;;;9.52;57.55;98409.38;5042892;28;20041;-58
2022/04/28 02:00:29;;;;;;;13.50;9.63;;;9.00;74.00;;;9.51;57.86;98417.50;5043922;28;20045;-57
2022/04/28 02:03:06;;;;;;;16.80;9.80;;;9.00;74.90;;;9.49;58.07;98408.81;5043261;28;20057;-58
2022/04/28 02:05:35;;;;;;;11.67;9.10;;;9.00;74.40;;;9.45;57.72;98414.38;5010217;28;20049;-59
2022/04/28 02:08:06;;;;;;;10.60;9.47;;;8.90;74.80;;;9.40;58.00;98411.31;5042311;28;20347;-58
2022/04/28 02:10:34;;;;;;;11.70;8.33;;;8.90;75.20;;;9.39;58.33;98414.94;5042514;28;20073;-59
2022/04/28 02:13:05;;;;;;;12.00;8.80;;;8.90;75.10;;;9.38;58.37;98415.94;5042493;28;20049;-59
2022/04/28 02:15:51;;;;;;;12.10;9.07;;;8.90;75.10;;;9.38;58.20;98420.38;5043497;28;20071;-58
2022/04/28 02:18:48;;;;;;;13.03;9.27;;;8.90;74.70;;;9.34;57.92;98418.97;5051773;28;20244;-58
2022/04/28 02:21:16;;;;;;;13.70;10.70;;;8.80;74.50;;;9.32;58.25;98419.09;5042570;28;20060;-58
2022/04/28 02:23:44;;;;;;;11.80;9.97;;;8.90;74.50;;;9.30;57.98;98425.53;5043077;28;20055;-58
2022/04/28 02:26:12;;;;;;;13.27;9.87;;;8.80;74.80;;;9.24;58.19;98425.06;5042750;28;20105;-58
2022/04/28 02:28:40;;;;;;;10.73;8.70;;;8.70;74.70;;;9.21;58.19;98420.06;5043178;28;20320;-58
2022/04/28 02:31:08;;;;;;;10.60;9.03;;;8.70;75.20;;;9.18;58.28;98420.31;5059187;28;20053;-58
2022/04/28 02:33:36;;;;;;;12.40;9.17;;;8.70;75.50;;;9.17;58.41;98420.44;5041858;28;20064;-58
2022/04/28 02:36:09;;;;;;;12.38;9.45;;;8.70;75.30;;;9.15;58.24;98417.94;5041733;28;20054;-58
2022/04/28 02:38:37;;;;;;;12.57;9.67;;;8.60;75.50;;;9.12;58.30;98428.81;5041753;28;20517;-58
2022/04/28 02:41:09;;;;;;;12.53;9.00;;;8.60;75.40;;;9.08;58.38;98424.75;5042425;28;20052;-58
2022/04/28 02:43:37;;;;;;;10.57;8.73;;;8.50;75.60;;;9.02;58.61;98428.75;5041803;28;20348;-58
2022/04/28 02:46:13;;;;;;;12.23;9.53;;;8.50;76.40;;;8.99;58.89;98429.00;5042261;28;20045;-58
2022/04/28 02:48:56;;;;;;;12.50;9.87;;;8.40;76.70;;;8.95;58.69;98424.13;5042009;28;20247;-58
2022/04/28 02:51:24;;;;;;;12.50;10.40;;;8.40;77.10;;;8.89;58.92;98428.13;5041663;28;20049;-58
2022/04/28 02:53:52;;;;;;;13.07;9.27;;;8.30;77.20;;;8.80;59.01;98431.56;5042154;28;20057;-59
2022/04/28 02:56:20;;;;;;;14.30;9.60;;;8.20;77.80;;;8.79;59.24;98428.06;5041037;28;20061;-58
2022/04/28 02:58:49;;;;;;;13.07;10.13;;;8.20;77.60;;;8.82;58.97;98432.28;5041478;28;20056;-57
2022/04/28 03:01:17;;;;;;;13.50;10.70;;;8.30;77.30;;;8.84;59.09;98423.22;5042139;28;20045;-58
2022/04/28 03:03:46;;;;;;;13.67;9.67;;;8.40;76.90;;;8.84;59.05;98428.53;5041469;28;20233;-58
2022/04/28 03:11:52;;;;;;;12.87;9.30;;;8.30;77.40;;;8.77;59.04;98435.34;5042560;28;20055;-58
2022/04/28 03:14:21;;;;;;;13.80;10.73;;;8.20;77.40;;;8.77;59.23;98439.81;5058130;28;20079;-58
2022/04/28 03:16:50;;;;;;;12.47;10.33;;;8.30;77.40;;;8.73;59.31;98439.22;5041705;28;20053;-58
2022/04/28 03:19:19;;;;;;;14.63;10.10;;;8.20;77.50;;;8.72;59.33;98442.84;5042302;28;20037;-58
2022/04/28 03:21:47;;;;;;;13.70;10.60;;;8.20;77.80;;;8.74;59.29;98443.53;5042290;28;20049;-58
2022/04/28 03:24:15;;;;;;;14.10;10.57;;;8.30;77.60;;;8.74;59.27;98445.38;5041223;28;20045;-58
2022/04/28 03:26:43;;;;;;;13.87;10.47;;;8.30;77.20;;;8.74;59.16;98446.19;5041695;28;20320;-58
2022/04/28 03:29:14;;;;;;;12.60;10.37;;;8.30;77.20;;;8.72;59.04;98447.31;5041209;28;20255;-58
2022/04/28 03:31:42;;;;;;;13.40;9.87;;;8.20;77.00;;;8.69;59.10;98445.78;5041440;28;20053;-58
2022/04/28 03:34:36;;;;;;;14.52;10.27;;;8.20;77.00;;;8.66;59.17;98452.16;5041896;28;20344;-58
2022/04/28 03:37:05;;;;;;;13.43;10.07;;;8.20;77.50;;;8.65;59.23;98449.66;5057260;28;20063;-58
2022/04/28 03:39:37;;;;;;;12.83;10.93;;;8.20;77.40;;;8.63;59.11;98448.94;5040670;28;20052;-59
2022/04/28 03:42:06;;;;;;;13.17;10.20;;;8.10;77.50;;;8.61;59.14;98456.19;5042230;28;20045;-58
2022/04/28 03:44:35;;;;;;;13.77;10.20;;;8.10;77.20;;;8.56;59.30;98455.72;5057860;28;20045;-58
2022/04/28 03:47:04;;;;;;;13.40;10.63;;;8.00;77.50;;;8.52;59.43;98452.50;5038755;28;20054;-57
2022/04/28 03:49:33;;;;;;;11.80;10.40;;;8.00;77.60;;;8.43;59.41;98453.25;5057105;28;20220;-57
2022/04/28 03:52:04;;;;;;;13.27;11.00;;;7.80;78.20;;;8.41;59.69;98456.06;5040865;28;20060;-57
2022/04/28 03:54:31;;;;;;;12.67;9.90;;;7.80;78.60;;;8.36;59.74;98458.22;5041802;28;20055;-56
2022/04/28 03:57:00;;;;;;;14.80;11.30;;;7.80;78.60;;;8.33;59.69;98460.25;5040725;28;20127;-57
2022/04/28 03:59:29;;;;;;;13.40;10.20;;;7.70;79.20;;;8.33;59.95;98458.44;5040740;28;20041;-57
2022/04/28 04:02:29;;;;;;;13.33;10.67;;;7.80;79.30;;;8.32;59.72;98458.56;5041409;28;20349;-58
2022/04/28 04:04:58;;;;;;;14.03;10.67;;;7.70;78.70;;;8.25;59.90;98456.44;5040641;28;20045;-58
2022/04/28 04:07:31;;;;;;;14.03;10.13;;;7.70;79.30;;;8.25;59.83;98459.09;5040254;28;20053;-58
2022/04/28 04:10:28;;;;;;;14.13;10.70;;;7.70;79.30;;;8.21;59.84;98455.00;5057933;28;20236;-58
2022/04/28 04:13:00;;;;;;;14.67;11.13;;;7.70;79.80;;;8.17;60.06;98458.03;5040670;28;20045;-58
2022/04/28 04:15:28;;;;;;;15.03;11.53;;;7.60;80.20;;;8.13;60.00;98470.72;5045089;28;20049;-58
2022/04/28 04:18:13;;;;;;;15.87;11.93;;;7.50;80.20;;;8.08;59.99;98471.09;5044319;28;20344;-57
2022/04/28 04:20:53;;;;;;;14.53;11.07;;;7.50;80.30;;;8.06;60.31;98465.09;5044782;28;20251;-58
2022/04/28 04:23:21;;;;;;;14.77;11.63;;;7.50;80.20;;;8.03;59.94;98470.63;5045537;28;20053;-56
2022/04/28 04:25:49;;;;;;;12.80;11.07;;;7.50;80.20;;;8.04;60.22;98471.47;5043829;28;20090;-57
2022/04/28 04:28:21;;;;;;;15.43;11.67;;;7.50;80.30;;;8.05;60.07;98475.81;5044322;28;20053;-56
2022/04/28 04:34:10;;;;;;;12.43;10.13;;;7.50;79.70;;;8.06;60.09;98469.53;5045543;28;20368;-57
2022/04/28 04:36:38;;;;;;;13.80;10.27;;;7.60;79.40;;;8.06;60.08;98473.03;5044252;28;20053;-57
2022/04/28 04:39:06;;;;;;;13.23;11.83;;;7.60;79.00;;;8.06;60.22;98474.81;5044669;28;20053;-56
2022/04/28 04:41:41;;;;;;;13.77;10.80;;;7.50;79.30;;;8.04;60.42;98487.38;5045029;28;20037;-58
2022/04/28 04:44:13;;;;;;;16.47;11.40;;;7.50;79.50;;;8.07;60.35;98479.19;5044065;28;20049;-53
2022/04/28 04:46:44;;;;;;;11.97;10.63;;;7.60;79.90;;;8.06;60.31;98483.66;5059136;28;20056;-55
2022/04/28 04:49:33;;;;;;;15.03;10.07;;;7.60;79.90;;;8.07;60.46;98495.09;5044533;28;20060;-56
2022/04/28 04:52:14;;;;;;;13.60;11.17;;;7.60;81.00;;;8.06;60.78;98491.59;5044027;28;20057;-55
2022/04/28 04:55:03;;;;;;;15.63;11.27;;;7.60;80.30;;;8.13;60.53;98499.06;5044204;28;20056;-57
2022/04/28 04:57:42;;;;;;;18.80;11.27;;;7.70;80.80;;;8.13;60.83;98497.22;5045736;28;20060;-54
2022/04/28 05:00:11;;;;;;;16.57;11.30;;;7.70;81.20;;;8.11;61.01;98507.13;5043490;28;20352;-57
2022/04/28 05:02:57;;;;;;;13.57;10.43;;;7.60;81.40;;;8.13;60.76;98497.22;5046987;28;20243;-57
2022/04/28 05:05:54;;;;;;;16.30;11.07;;;7.70;81.70;;;8.17;61.18;98503.13;5039778;28;20057;-56
2022/04/28 05:08:29;;;;;;;17.03;11.53;;;7.80;82.10;;;8.20;61.25;98509.03;5043832;28;20353;-57
2022/04/28 05:11:08;;;;;;;17.00;12.97;;;7.80;82.40;;;8.23;61.33;98522.03;5043548;28;20049;-54
2022/04/28 05:13:43;;;;;;;15.30;12.20;;;7.80;82.60;;;8.23;61.50;98511.41;5043390;28;20373;-57
2022/04/28 05:16:13;;;;;;;16.00;12.57;;;7.80;83.50;;;8.26;61.64;98521.78;5043041;28;20053;-57
2022/04/28 05:18:53;;;;;;;14.67;11.77;;;7.90;83.80;;;8.29;61.90;98526.00;5042843;28;20054;-58
2022/04/28 05:21:39;;;;;;;14.03;11.27;;;7.90;84.30;;;8.34;62.04;98530.94;5046399;28;20049;-57
2022/04/28 05:24:33;;;;;;;12.50;10.67;;;8.00;84.90;;;8.39;61.85;98534.06;5059214;28;20053;-56
2022/04/28 05:27:20;;;;;;;17.03;11.50;;;8.10;84.90;;;8.45;61.91;98537.09;5047302;28;20622;-55
2022/04/28 05:29:54;;;;;;;;;;;8.20;84.70;;;8.47;61.94;98531.63;5046894;28;20288;-57
2022/04/28 05:32:39;;;;;;;14.90;12.03;;;8.20;87.00;;;8.55;61.87;98542.47;5043141;28;19917;-56
2022/04/28 05:35:28;;;;;;;16.30;13.23;;;8.30;85.50;;;8.61;61.93;98546.44;5052886;28;20057;-57
2022/04/28 05:37:56;;;;;;;18.37;14.57;;;8.30;85.40;;;8.63;62.11;98550.66;5044098;28;20060;-57
2022/04/28 05:40:24;;;;;;;17.50;13.13;;;8.30;85.10;;;8.67;62.02;98549.41;5044140;28;20348;-57
2022/04/28 05:45:43;;;;;;;14.20;11.23;;;8.40;85.10;;;8.76;62.20;98555.78;5033789;28;20061;-55
2022/04/28 05:48:17;;;;;;;15.43;12.47;;;8.50;85.30;;;8.79;62.33;98560.00;5042092;28;20351;-57
2022/04/28 05:50:52;;;;;;;15.33;12.63;;;8.50;85.70;;;8.82;62.45;98555.28;5043008;28;20049;-55
2022/04/28 05:53:21;;;;;;;17.63;12.57;;;8.50;86.00;;;8.85;62.64;98552.34;5058907;28;20053;-56
2022/04/28 05:55:56;;;;;;;18.83;13.97;;;8.50;86.40;;;8.87;62.98;98558.38;5042611;28;20060;-55
2022/04/28 05:58:35;;;;;;;16.20;12.47;;;8.60;86.70;;;8.92;62.68;98560.66;5044260;28;20056;-57
2022/04/28 06:01:26;;;;;;;15.23;12.00;;;8.60;87.10;;;8.97;62.75;98560.25;5040541;28;20045;-57
2022/04/28 06:03:56;;;;;;;14.23;12.03;;;8.70;87.30;;;8.99;62.72;98569.78;5042810;28;20243;-56
2022/04/28 06:06:24;;;;;;;18.40;12.30;;;8.70;87.80;;;9.02;62.95;98568.72;5041762;28;20359;-57
2022/04/28 06:08:56;;;;;;;16.27;11.50;;;8.70;87.80;;;9.06;62.91;98570.97;5042546;28;20224;-57
2022/04/28 06:11:24;;;;;;;15.43;11.80;;;8.80;87.40;;;9.10;63.09;98570.72;5043873;28;20267;-55
2022/04/28 06:13:52;;;;;;;13.73;11.33;;;8.90;87.10;;;9.14;62.68;98577.44;5042642;28;20247;-56
2022/04/28 06:16:47;;;;;;;18.67;11.80;;;8.90;86.70;;;9.18;62.55;98574.41;5042560;28;20229;-55
2022/04/28 06:19:25;;;;;;;14.23;10.23;;;8.90;86.10;;;9.21;62.69;98579.47;5042818;28;20053;-57
2022/04/28 06:22:13;;;;;;;16.80;10.87;;;9.00;85.80;;;9.26;62.81;98584.38;5043576;28;20047;-55
2022/04/28 06:24:54;;;;;;;12.73;10.70;;;9.00;85.60;;;9.30;62.67;98584.97;5042333;28;20053;-56
2022/04/28 06:27:23;;;;;;;14.77;10.83;;;9.10;85.60;;;9.35;62.83;98578.28;5058363;28;20053;-56
2022/04/28 06:29:52;;;;;;;12.20;10.03;;;9.20;85.00;;;9.41;62.76;98590.22;5025883;28;20060;-57
2022/04/28 06:32:22;;;;;;;14.87;10.77;;;9.30;84.80;;;9.45;62.39;98587.16;5042225;28;20055;-55
2022/04/28 06:35:05;;;;;;;12.03;9.53;;;9.30;84.80;;;9.50;62.58;98591.22;5048499;28;20057;-57
2022/04/28 06:37:35;;;;;;;12.87;11.20;;;9.30;84.80;;;9.55;62.89;98597.84;5042196;28;20053;-54
2022/04/28 06:40:05;;;;;;;13.33;10.80;;;9.40;84.80;;;9.60;62.55;98608.09;5041828;28;20045;-56
2022/04/28 06:42:33;;;;;;;13.50;11.37;;;9.40;84.70;;;9.66;63.05;98602.25;5041832;28;20049;-57
2022/04/28 06:45:19;;;;;;;16.10;11.20;;;9.50;84.90;;;9.72;62.95;98593.75;5042933;28;20051;-57
2022/04/28 06:47:53;;;;;;;13.68;10.65;;;9.60;85.00;;;9.76;63.07;98603.13;5045005;28;20111;-55
2022/04/28 06:50:50;;;;;;;14.07;11.33;;;9.60;85.30;;;9.83;63.17;98603.47;5042768;28;20362;-53
2022/04/28 06:53:17;;;;;;;14.73;10.50;;;9.70;85.70;;;9.86;62.92;98603.19;5043197;28;20067;-57
2022/04/28 06:55:50;;;;;;;13.67;11.47;;;9.70;85.70;;;9.91;63.08;98606.28;5041346;28;20053;-55
2022/04/28 06:58:18;;;;;;;13.60;10.63;;;9.80;86.10;;;9.96;63.11;98603.22;5058082;28;20053;-55
2022/04/28 07:00:45;;;;;;;11.83;9.23;;;9.80;86.20;;;10.01;63.17;98601.84;5057797;28;20063;-57
2022/04/28 07:03:14;;;;;;;13.03;9.10;;;9.90;86.20;;;10.07;63.46;98608.44;5043109;28;20048;-57
2022/04/28 07:05:43;;;;;;;12.00;8.93;;;9.90;85.50;;;10.12;62.79;98608.88;5041161;28;20376;-55
2022/04/28 07:08:12;;;;;;;9.03;7.40;;;10.00;84.70;;;10.17;62.72;98604.00;5041647;28;20053;-53
2022/04/28 07:10:45;;;;;;;13.32;8.27;;;10.10;83.60;;;10.24;62.43;98609.63;5041844;28;20049;-54
2022/04/28 07:13:13;;;;;;;8.90;7.80;;;10.10;82.50;;;10.28;62.10;98613.69;5041389;28;20128;-56
2022/04/28 07:15:59;;;;;;;9.70;7.83;;;10.20;81.50;;;10.34;62.03;98615.00;5042272;28;20055;-56
2022/04/28 07:18:59;;;;;;;9.83;8.27;;;10.20;80.50;;;10.38;61.59;98613.75;5042108;28;20084;-57
2022/04/28 07:21:28;;;;;;;11.37;8.33;;;10.30;79.90;;;10.44;61.72;98616.69;5042442;28;20041;-57
2022/04/28 07:23:57;;;;;;;10.90;7.67;;;10.40;79.80;;;10.50;61.78;98622.47;5041112;28;20052;-56
2022/04/28 07:26:26;;;;;;;10.43;8.53;;;10.50;79.10;;;10.55;61.25;98623.75;5041351;28;20049;-57
2022/04/28 07:28:54;;;;;;;12.40;9.63;;;10.50;78.70;;;10.62;61.53;98624.03;5041515;28;20350;-56
2022/04/28 07:31:22;;;;;;;10.97;8.70;;;10.60;78.50;;;10.66;61.83;98622.75;5042138;28;20051;-55
2022/04/28 07:34:08;;;;;;;12.07;9.27;;;10.70;78.80;;;10.71;61.41;98625.88;5044176;28;20247;-56
2022/04/28 07:36:54;;;;;;;11.37;9.47;;;10.70;78.70;;;10.76;61.33;98628.09;5042023;28;20045;-57
2022/04/28 07:39:28;;;;;;;;;;;10.70;78.50;;;10.78;61.45;98626.19;5047203;28;20344;-57
2022/04/28 07:42:16;;;;;;;12.37;9.60;;;10.70;78.20;;;10.84;61.50;98620.28;5041322;28;19917;-57
2022/04/28 07:44:47;;;;;;;11.70;8.83;;;10.70;78.70;;;10.89;61.19;98623.34;5024742;28;20086;-57
2022/04/28 07:47:17;;;;;;;12.73;9.10;;;10.90;78.20;;;10.95;61.65;98628.16;5041388;28;20046;-57
2022/04/28 07:50:20;;;;;;;;;;;10.90;78.30;;;10.95;61.21;98629.94;5050789;28;20064;-57
2022/04/28 07:52:49;;;;;;;11.73;9.23;;;11.00;77.80;;;11.07;61.40;98628.00;5045070;28;20211;-56
2022/04/28 07:55:17;;;;;;;12.80;9.23;;;11.00;78.20;;;11.14;61.29;98627.28;5046731;28;20382;-56
2022/04/28 07:57:48;;;;;;;10.80;8.90;;;11.10;77.90;;;11.22;61.18;98630.13;5061498;28;20049;-58
2022/04/28 08:00:26;;;;;;;12.18;9.50;;;11.20;77.40;;;11.29;61.25;98638.38;5061461;28;20259;-57
2022/04/28 08:02:56;;;;;;;13.17;8.97;;;11.30;77.20;;;11.35;61.05;98632.47;5045172;28;20049;-56
2022/04/28 08:05:35;;;;;;;11.90;8.80;;;11.40;77.20;;;11.41;61.14;98642.56;5060851;28;20052;-58
2022/04/28 08:08:03;;;;;;;12.53;10.03;;;11.50;77.10;;;11.49;61.24;98638.34;5044638;28;20263;-57
2022/04/28 08:10:31;;;;;;;11.07;9.02;;;11.50;76.60;;;11.60;60.90;98635.53;5045043;28;20057;-57
2022/04/28 08:12:59;;;;;;;10.30;8.50;;;11.70;76.30;;;11.63;60.56;98633.41;5061197;28;20358;-58
2022/04/28 08:16:00;;;;;;;11.73;9.15;;;11.70;75.80;;;11.71;60.48;98647.84;5055285;28;20059;-57
2022/04/28 08:18:40;;;;;;;11.80;9.13;;;11.70;75.70;;;11.77;60.08;98647.28;5044882;28;20060;-55
2022/04/28 08:21:12;;;;;;;10.40;8.33;;;11.80;74.90;;;11.83;60.07;98649.38;5044519;28;20045;-57
2022/04/28 08:23:40;;;;;;;12.75;9.35;;;11.90;74.60;;;11.89;60.37;98643.50;5044727;28;20049;-57
2022/04/28 08:26:09;;;;;;;10.73;9.48;;;12.00;75.10;;;11.95;60.44;98653.56;5060652;28;20269;-58
2022/04/28 08:28:37;;;;;;;14.95;10.10;;;12.00;75.00;;;12.03;60.39;98652.84;5045521;28;20350;-57
2022/04/28 08:31:05;;;;;;;12.32;9.85;;;12.10;75.00;;;12.10;60.17;98648.63;5044383;28;20057;-57
2022/04/28 08:33:33;;;;;;;11.95;10.05;;;12.20;74.80;;;12.16;60.27;98648.03;5044088;28;20041;-57
2022/04/28 08:36:01;;;;;;;11.60;9.40;;;12.30;74.80;;;12.22;59.94;98651.94;5043668;28;20059;-57
2022/04/28 08:38:31;;;;;;;13.50;9.63;;;12.30;74.20;;;12.28;60.05;98648.66;5044433;28;20057;-57
2022/04/28 08:41:02;;;;;;;13.63;9.95;;;12.40;74.10;;;12.36;60.07;98645.25;5044097;28;20045;-58
2022/04/28 08:44:00;;;;;;;11.90;9.05;;;12.50;74.30;;;12.44;59.87;98650.69;5044778;28;20057;-57
2022/04/28 08:49:29;;;;;;;13.05;8.85;;;12.60;73.60;;;12.60;59.51;98652.72;5043936;28;20067;-58
2022/04/28 08:52:36;;;;;;;10.68;7.30;;;12.70;73.50;;;12.67;58.70;98647.63;5023814;28;20085;-58
2022/04/28 08:55:16;;;;;;;9.40;6.30;;;12.80;71.40;;;12.73;58.14;98650.53;5007040;28;20053;-57
2022/04/28 08:57:45;;;;;;;8.43;6.07;;;12.80;70.50;;;12.76;57.30;98650.25;5025977;28;20056;-56
2022/04/28 09:00:13;;;;;;;10.13;6.63;;;12.90;69.00;;;12.86;57.28;98652.00;5042827;28;20054;-59
2022/04/28 09:03:13;;;;;;;10.55;6.38;;;13.00;69.00;;;12.94;57.17;98652.09;5044858;28;20049;-57
2022/04/28 09:06:23;;;;;;;7.57;5.15;;;13.10;69.00;;;12.97;53.64;98649.13;5049352;28;20347;-57
2022/04/28 09:09:18;;;;;;;6.40;5.30;;;13.10;64.40;;;13.07;55.19;98657.91;5046827;28;20048;-58
2022/04/28 09:12:06;;;;;;;7.38;5.18;;;13.20;63.60;;;13.15;54.54;98660.66;5050442;28;20420;-58
2022/04/28 09:15:09;;;;;;;8.27;4.65;;;13.30;64.70;;;13.22;53.92;98649.34;5044048;28;20072;-58
2022/04/28 09:17:41;;;;;;;6.97;4.70;;;13.40;64.00;;;13.28;52.64;98654.94;5029804;28;20369;-57
2022/04/28 09:20:13;;;;;;;8.90;5.72;;;13.40;62.40;;;13.31;52.54;98657.31;5044218;28;20060;-57
2022/04/28 09:22:43;;;;;;;6.55;5.50;;;13.50;61.60;;;13.39;51.44;98649.34;5043942;28;20248;-57
2022/04/28 09:25:20;;;;;;;7.20;5.15;;;13.50;60.80;;;13.47;50.66;98650.41;5043416;28;20054;-57
2022/04/28 09:27:55;;;;;;;6.57;4.72;;;13.60;59.60;;;13.53;51.05;98650.66;5060356;28;20065;-57
2022/04/28 09:30:24;;;;;;;6.03;4.25;;;13.60;59.20;;;13.57;50.18;98638.66;5060580;28;20050;-58
2022/04/28 09:33:13;;;;;;;7.93;5.03;;;13.70;59.80;;;13.66;49.11;98646.72;5043902;28;20221;-57
2022/04/28 09:35:54;;;;;;;5.55;4.32;;;13.80;58.80;;;13.75;50.81;98651.16;5042666;28;20045;-58
2022/04/28 09:38:51;;;;;;;7.55;5.10;;;13.90;59.10;;;13.78;51.25;98646.31;5044228;28;20054;-58
2022/04/28 09:44:06;;;;;;;4.40;3.70;;;14.00;58.50;;;13.89;49.48;98647.03;5042995;28;20250;-58
2022/04/28 09:46:43;;;;;;;5.25;3.70;;;14.00;57.20;;;13.93;49.32;98645.72;5043147;28;20366;-58
2022/04/28 09:49:17;;;;;;;4.65;3.95;;;14.10;55.40;;;13.98;48.86;98648.78;5060017;28;20049;-58
2022/04/28 09:52:12;;;;;;;6.13;4.88;;;14.10;56.10;;;14.03;48.52;98642.94;5043102;28;20057;-58
2022/04/28 09:55:06;;;;;;;6.43;4.78;;;14.20;55.70;;;14.07;48.83;98645.13;5045902;28;20057;-58
2022/04/28 09:57:53;;;;;;;4.43;3.70;;;14.20;56.10;;;14.13;48.91;98638.31;5048381;28;20051;-58
2022/04/28 10:00:21;;;;;;;5.72;4.43;;;14.30;56.10;;;14.20;48.97;98641.19;5043002;28;20277;-58
2022/04/28 10:02:55;;;;;;;5.53;4.60;;;14.30;56.00;;;14.26;48.66;98635.19;5045816;28;20041;-58
2022/04/28 10:05:31;;;;;;;5.88;4.50;;;14.40;56.80;;;14.29;48.93;98635.72;5042090;28;20049;-57
2022/04/28 10:08:13;;;;;;;5.93;4.72;;;14.50;56.20;;;14.35;48.64;98637.75;5043799;28;20047;-58
2022/04/28 10:10:43;;;;;;;7.88;5.18;;;14.60;55.60;;;14.41;48.62;98638.13;5026226;28;20046;-58
2022/04/28 10:13:13;;;;;;;5.88;4.45;;;14.60;55.60;;;14.46;48.16;98633.94;5026383;28;20053;-58
2022/04/28 10:15:56;;;;;;;7.13;3.85;;;14.70;54.90;;;14.56;46.44;98631.13;5042124;28;20061;-58
2022/04/28 10:18:33;;;;;;;5.25;3.85;;;14.90;53.40;;;14.65;47.12;98630.16;5026165;28;20056;-58
2022/04/28 10:21:08;;;;;;;7.07;3.92;;;14.90;52.70;;;14.72;46.41;98631.19;5026773;28;20059;-57
2022/04/28 10:33:15;;;;;;;5.90;2.88;;;15.20;49.70;;;15.02;41.44;98618.19;5043870;28;20055;-58
2022/04/28 10:35:44;;;;;;;6.53;3.03;;;15.20;49.30;;;15.09;43.73;98615.69;5042865;28;20051;-59
2022/04/28 10:38:34;;;;;;;3.90;3.13;;;15.30;49.10;;;15.12;40.82;98612.66;5043179;28;20059;-58
2022/04/28 10:41:05;;;;;;;3.10;2.75;;;15.30;47.20;;;15.19;42.82;98612.84;5042004;28;20050;-58
2022/04/28 10:43:32;;;;;;;3.78;2.83;;;15.40;47.70;;;15.23;42.43;98615.00;5043031;28;20355;-58
2022/04/28 10:46:28;;;;;;;4.07;2.85;;;15.40;47.70;;;15.29;39.37;98614.34;5042457;28;20041;-58
2022/04/28 10:49:03;;;;;;;5.18;2.78;;;15.50;46.00;;;15.35;40.46;98608.31;5042952;28;20042;-58
2022/04/28 10:51:33;;;;;;;6.20;2.97;;;15.50;45.40;;;15.39;41.80;98608.81;5025249;28;20246;-58
2022/04/28 10:54:14;;;;;;;3.45;3.13;;;15.50;46.10;;;15.41;41.63;98614.88;5042030;28;20049;-58
2022/04/28 10:56:42;;;;;;;5.22;3.20;;;15.60;44.60;;;15.44;42.11;98611.81;5042291;28;20050;-58
2022/04/28 10:59:37;;;;;;;4.40;2.85;;;15.60;46.80;;;15.46;41.97;98614.34;5042717;28;20048;-58
2022/04/28 11:02:10;;;;;;;3.13;2.83;;;15.70;42.70;;;15.48;40.84;98613.16;5057743;28;20054;-58
2022/04/28 11:04:40;;;;;;;3.83;2.72;;;15.70;44.50;;;15.50;41.03;98621.88;5042658;28;20052;-59
2022/04/28 11:07:12;;;;;;;4.07;3.05;;;15.70;45.30;;;15.55;40.81;98619.53;5042085;28;20235;-58
2022/04/28 11:09:43;;;;;;;3.15;2.70;;;15.70;45.30;;;15.61;40.38;98625.25;5042550;28;20045;-59
2022/04/28 11:12:18;;;;;;;3.58;3.05;;;15.80;44.60;;;15.64;39.69;98623.03;5042946;28;20060;-58
2022/04/28 11:14:47;;;;;;;3.13;2.83;;;15.80;44.70;;;15.66;40.53;98615.66;5042460;28;20060;-59
2022/04/28 11:17:17;;;;;;;3.47;2.78;;;15.80;44.60;;;15.70;40.53;98619.69;5041009;28;20050;-59
2022/04/28 11:19:46;;;;;;;4.72;2.65;;;15.90;44.50;;;15.75;39.41;98614.66;5042614;28;20374;-59
2022/04/28 11:22:14;;;;;;;4.95;3.08;;;16.00;43.70;;;15.80;39.75;98624.91;5041932;28;20124;-59
2022/04/28 11:24:44;;;;;;;4.18;2.90;;;16.10;43.70;;;15.89;40.64;98626.56;5042126;28;20072;-59